Terminal Aerodrome Forecast
Issued by NWS

Home | Current Version | Previous Version | Graphics & Text | Print | Product List | Glossary On
Versions: 1 2 3 4 5 6 7 8 9 10 11 12 13 14
943
FTUS43 KICT 222339
TAFRSL
TAF
KRSL 222339Z 2300/2324 17020G30KT P6SM SCT250
     FM230900 18014G20KT P6SM SCT250
     FM231600 18022G29KT P6SM SCT060=

USA.gov is the U.S. government's official web portal to all federal, state and local government web resources and services.